sensor_id;sensor_type;location;lat;lon;timestamp;pressure;altitude;pressure_sealevel;temperature;humidity
12666;BME280;58531;59.050;17.416;2023-03-12T00:01:13;98792.34;;;-8.79;100.00
12666;BME280;58531;59.050;17.416;2023-03-12T00:03:41;98789.63;;;-8.60;100.00
12666;BME280;58531;59.050;17.416;2023-03-12T00:06:09;98794.13;;;-8.53;100.00
12666;BME280;58531;59.050;17.416;2023-03-12T00:08:36;98788.53;;;-8.59;100.00
12666;BME280;58531;59.050;17.416;2023-03-12T00:11:08;98795.78;;;-8.71;100.00
12666;BME280;58531;59.050;17.416;2023-03-12T00:13:36;98801.47;;;-8.88;100.00
12666;BME280;58531;59.050;17.416;2023-03-12T00:16:08;98795.03;;;-9.01;100.00
12666;BME280;58531;59.050;17.416;2023-03-12T00:18:35;98799.84;;;-9.00;100.00
12666;BME280;58531;59.050;17.416;2023-03-12T00:21:03;98800.16;;;-9.05;100.00
12666;BME280;58531;59.050;17.416;2023-03-12T00:23:31;98794.63;;;-9.03;100.00
12666;BME280;58531;59.050;17.416;2023-03-12T00:25:59;98795.78;;;-9.01;100.00
12666;BME280;58531;59.050;17.416;2023-03-12T00:28:27;98792.50;;;-8.98;100.00
12666;BME280;58531;59.050;17.416;2023-03-12T00:30:54;98792.97;;;-8.89;100.00
12666;BME280;58531;59.050;17.416;2023-03-12T00:33:23;98794.94;;;-8.79;100.00
12666;BME280;58531;59.050;17.416;2023-03-12T00:35:50;98795.34;;;-8.77;100.00
12666;BME280;58531;59.050;17.416;2023-03-12T00:38:17;98798.00;;;-8.70;100.00
12666;BME280;58531;59.050;17.416;2023-03-12T00:40:45;98793.63;;;-8.66;100.00
12666;BME280;58531;59.050;17.416;2023-03-12T00:43:12;98788.53;;;-8.59;100.00
12666;BME280;58531;59.050;17.416;2023-03-12T00:45:39;98798.88;;;-8.59;100.00
12666;BME280;58531;59.050;17.416;2023-03-12T00:48:06;98800.69;;;-8.63;100.00
12666;BME280;58531;59.050;17.416;2023-03-12T00:50:33;98805.03;;;-8.70;100.00
12666;BME280;58531;59.050;17.416;2023-03-12T00:53:00;98801.97;;;-8.79;100.00
12666;BME280;58531;59.050;17.416;2023-03-12T00:55:27;98807.66;;;-8.96;100.00
12666;BME280;58531;59.050;17.416;2023-03-12T00:57:55;98799.31;;;-9.12;100.00
12666;BME280;58531;59.050;17.416;2023-03-12T01:00:22;98813.69;;;-9.15;100.00
12666;BME280;58531;59.050;17.416;2023-03-12T01:02:49;98813.31;;;-9.13;100.00
12666;BME280;58531;59.050;17.416;2023-03-12T01:05:16;98816.69;;;-9.09;100.00
12666;BME280;58531;59.050;17.416;2023-03-12T01:07:43;98810.84;;;-9.06;100.00
12666;BME280;58531;59.050;17.416;2023-03-12T01:10:13;98813.88;;;-9.01;100.00
12666;BME280;58531;59.050;17.416;2023-03-12T01:12:41;98813.56;;;-8.96;100.00
12666;BME280;58531;59.050;17.416;2023-03-12T01:15:11;98813.25;;;-8.91;100.00
12666;BME280;58531;59.050;17.416;2023-03-12T01:17:39;98815.81;;;-8.94;100.00
12666;BME280;58531;59.050;17.416;2023-03-12T01:20:07;98819.88;;;-8.93;100.00
12666;BME280;58531;59.050;17.416;2023-03-12T01:22:35;98818.41;;;-8.91;100.00
12666;BME280;58531;59.050;17.416;2023-03-12T01:25:03;98816.63;;;-8.87;100.00
12666;BME280;58531;59.050;17.416;2023-03-12T01:27:30;98819.28;;;-8.83;100.00
12666;BME280;58531;59.050;17.416;2023-03-12T01:29:57;98811.94;;;-8.78;100.00
12666;BME280;58531;59.050;17.416;2023-03-12T01:32:25;98819.41;;;-8.73;100.00
12666;BME280;58531;59.050;17.416;2023-03-12T01:34:52;98812.41;;;-8.72;100.00
12666;BME280;58531;59.050;17.416;2023-03-12T01:37:19;98812.44;;;-8.69;100.00
12666;BME280;58531;59.050;17.416;2023-03-12T01:39:46;98816.16;;;-8.66;100.00
12666;BME280;58531;59.050;17.416;2023-03-12T01:42:12;98816.91;;;-8.66;100.00
12666;BME280;58531;59.050;17.416;2023-03-12T01:44:50;98818.72;;;-8.66;100.00
12666;BME280;58531;59.050;17.416;2023-03-12T01:47:17;98827.22;;;-8.69;100.00
12666;BME280;58531;59.050;17.416;2023-03-12T01:49:46;98825.75;;;-8.67;100.00
12666;BME280;58531;59.050;17.416;2023-03-12T01:52:16;98827.94;;;-8.69;100.00
12666;BME280;58531;59.050;17.416;2023-03-12T01:54:49;98825.03;;;-8.67;100.00
12666;BME280;58531;59.050;17.416;2023-03-12T01:57:22;98822.06;;;-8.66;100.00
12666;BME280;58531;59.050;17.416;2023-03-12T01:59:53;98828.06;;;-8.58;100.00
12666;BME280;58531;59.050;17.416;2023-03-12T02:02:22;98832.16;;;-8.57;100.00
12666;BME280;58531;59.050;17.416;2023-03-12T02:05:02;98837.19;;;-8.38;100.00
12666;BME280;58531;59.050;17.416;2023-03-12T02:07:32;98835.41;;;-8.31;100.00
12666;BME280;58531;59.050;17.416;2023-03-12T02:09:59;98833.69;;;-8.20;100.00
12666;BME280;58531;59.050;17.416;2023-03-12T02:12:26;98837.25;;;-7.95;100.00
12666;BME280;58531;59.050;17.416;2023-03-12T02:14:53;98838.41;;;-7.89;100.00
12666;BME280;58531;59.050;17.416;2023-03-12T02:17:20;98838.16;;;-7.77;100.00
12666;BME280;58531;59.050;17.416;2023-03-12T02:19:53;98841.78;;;-7.45;100.00
12666;BME280;58531;59.050;17.416;2023-03-12T02:22:25;98841.50;;;-7.30;100.00
12666;BME280;58531;59.050;17.416;2023-03-12T02:24:56;98840.47;;;-7.18;100.00
12666;BME280;58531;59.050;17.416;2023-03-12T02:27:30;98838.59;;;-7.21;100.00
12666;BME280;58531;59.050;17.416;2023-03-12T02:29:59;98842.34;;;-7.15;100.00
12666;BME280;58531;59.050;17.416;2023-03-12T02:32:29;98842.00;;;-7.10;100.00
12666;BME280;58531;59.050;17.416;2023-03-12T02:35:00;98841.66;;;-7.09;100.00
12666;BME280;58531;59.050;17.416;2023-03-12T02:37:28;98843.22;;;-6.94;100.00
12666;BME280;58531;59.050;17.416;2023-03-12T02:40:00;98842.50;;;-6.91;100.00
12666;BME280;58531;59.050;17.416;2023-03-12T02:42:32;98844.38;;;-6.92;100.00
12666;BME280;58531;59.050;17.416;2023-03-12T02:44:59;98846.25;;;-6.89;100.00
12666;BME280;58531;59.050;17.416;2023-03-12T02:47:27;98846.59;;;-6.90;100.00
12666;BME280;58531;59.050;17.416;2023-03-12T02:49:54;98851.78;;;-6.90;100.00
12666;BME280;58531;59.050;17.416;2023-03-12T02:52:21;98856.25;;;-6.87;100.00
12666;BME280;58531;59.050;17.416;2023-03-12T02:54:48;98858.50;;;-6.79;100.00
12666;BME280;58531;59.050;17.416;2023-03-12T02:57:15;98861.16;;;-6.72;100.00
12666;BME280;58531;59.050;17.416;2023-03-12T02:59:44;98857.53;;;-6.57;100.00
12666;BME280;58531;59.050;17.416;2023-03-12T03:02:11;98863.81;;;-6.54;100.00
12666;BME280;58531;59.050;17.416;2023-03-12T03:04:38;98865.69;;;-6.51;100.00
12666;BME280;58531;59.050;17.416;2023-03-12T03:07:05;98867.56;;;-6.52;100.00
12666;BME280;58531;59.050;17.416;2023-03-12T03:09:32;98876.44;;;-6.53;100.00
12666;BME280;58531;59.050;17.416;2023-03-12T03:11:59;98880.53;;;-6.52;100.00
12666;BME280;58531;59.050;17.416;2023-03-12T03:14:25;98874.28;;;-6.44;100.00
12666;BME280;58531;59.050;17.416;2023-03-12T03:16:54;98878.75;;;-6.41;100.00
12666;BME280;58531;59.050;17.416;2023-03-12T03:19:21;98886.91;;;-6.39;100.00
12666;BME280;58531;59.050;17.416;2023-03-12T03:21:48;98893.59;;;-6.31;100.00
12666;BME280;58531;59.050;17.416;2023-03-12T03:24:15;98893.25;;;-6.26;100.00
12666;BME280;58531;59.050;17.416;2023-03-12T03:26:41;98890.66;;;-6.26;100.00
12666;BME280;58531;59.050;17.416;2023-03-12T03:29:08;98889.56;;;-6.18;100.00
12666;BME280;58531;59.050;17.416;2023-03-12T03:31:35;98895.88;;;-6.19;100.00
12666;BME280;58531;59.050;17.416;2023-03-12T03:34:04;98904.06;;;-6.17;100.00
12666;BME280;58531;59.050;17.416;2023-03-12T03:36:31;98901.84;;;-6.18;100.00
12666;BME280;58531;59.050;17.416;2023-03-12T03:38:57;98906.31;;;-6.15;100.00
12666;BME280;58531;59.050;17.416;2023-03-12T03:41:24;98907.41;;;-6.16;100.00
12666;BME280;58531;59.050;17.416;2023-03-12T03:43:55;98912.22;;;-6.11;100.00
12666;BME280;58531;59.050;17.416;2023-03-12T03:46:22;98912.59;;;-6.13;100.00
12666;BME280;58531;59.050;17.416;2023-03-12T03:48:48;98924.09;;;-6.10;100.00
12666;BME280;58531;59.050;17.416;2023-03-12T03:51:17;98929.34;;;-6.07;100.00
12666;BME280;58531;59.050;17.416;2023-03-12T03:53:44;98922.66;;;-6.04;100.00
12666;BME280;58531;59.050;17.416;2023-03-12T03:56:12;98945.69;;;-6.03;100.00
12666;BME280;58531;59.050;17.416;2023-03-12T03:58:40;98933.84;;;-5.97;100.00
12666;BME280;58531;59.050;17.416;2023-03-12T04:01:07;98936.47;;;-5.90;100.00
12666;BME280;58531;59.050;17.416;2023-03-12T04:03:34;98948.72;;;-5.87;100.00
12666;BME280;58531;59.050;17.416;2023-03-12T04:06:03;98939.06;;;-5.90;100.00
12666;BME280;58531;59.050;17.416;2023-03-12T04:08:33;98950.19;;;-5.86;100.00
12666;BME280;58531;59.050;17.416;2023-03-12T04:11:05;98956.13;;;-5.85;100.00
12666;BME280;58531;59.050;17.416;2023-03-12T04:13:33;98953.16;;;-5.84;100.00
12666;BME280;58531;59.050;17.416;2023-03-12T04:16:00;98965.44;;;-5.81;100.00
12666;BME280;58531;59.050;17.416;2023-03-12T04:18:27;98972.84;;;-5.86;100.00
12666;BME280;58531;59.050;17.416;2023-03-12T04:20:54;98971.00;;;-5.79;100.00
12666;BME280;58531;59.050;17.416;2023-03-12T04:23:21;98977.69;;;-5.78;100.00
12666;BME280;58531;59.050;17.416;2023-03-12T04:25:49;98978.06;;;-5.79;100.00
12666;BME280;58531;59.050;17.416;2023-03-12T04:28:16;98978.06;;;-5.79;100.00
12666;BME280;58531;59.050;17.416;2023-03-12T04:30:43;98986.59;;;-5.79;100.00
12666;BME280;58531;59.050;17.416;2023-03-12T04:33:10;98980.66;;;-5.73;100.00
12666;BME280;58531;59.050;17.416;2023-03-12T04:35:37;98981.44;;;-5.69;100.00
12666;BME280;58531;59.050;17.416;2023-03-12T04:38:04;98986.63;;;-5.65;100.00
12666;BME280;58531;59.050;17.416;2023-03-12T04:40:31;98991.09;;;-5.59;100.00
12666;BME280;58531;59.050;17.416;2023-03-12T04:42:59;98993.38;;;-5.47;100.00
12666;BME280;58531;59.050;17.416;2023-03-12T04:45:26;98994.13;;;-5.43;100.00
12666;BME280;58531;59.050;17.416;2023-03-12T04:47:53;98994.50;;;-5.41;100.00
12666;BME280;58531;59.050;17.416;2023-03-12T04:50:19;98999.34;;;-5.39;100.00
12666;BME280;58531;59.050;17.416;2023-03-12T04:52:46;99011.97;;;-5.34;100.00
12666;BME280;58531;59.050;17.416;2023-03-12T04:55:13;99011.22;;;-5.31;100.00
12666;BME280;58531;59.050;17.416;2023-03-12T04:57:40;99005.28;;;-5.35;100.00
12666;BME280;58531;59.050;17.416;2023-03-12T05:00:10;99006.41;;;-5.29;100.00
12666;BME280;58531;59.050;17.416;2023-03-12T05:02:38;99010.13;;;-5.30;100.00
12666;BME280;58531;59.050;17.416;2023-03-12T05:05:06;99021.25;;;-5.33;100.00
12666;BME280;58531;59.050;17.416;2023-03-12T05:07:33;99017.16;;;-5.34;100.00
12666;BME280;58531;59.050;17.416;2023-03-12T05:10:00;99024.97;;;-5.34;100.00
12666;BME280;58531;59.050;17.416;2023-03-12T05:12:27;99023.88;;;-5.37;100.00
12666;BME280;58531;59.050;17.416;2023-03-12T05:14:54;99026.09;;;-5.35;100.00
12666;BME280;58531;59.050;17.416;2023-03-12T05:17:22;99019.78;;;-5.34;100.00
12666;BME280;58531;59.050;17.416;2023-03-12T05:19:49;99032.75;;;-5.45;100.00
12666;BME280;58531;59.050;17.416;2023-03-12T05:22:16;99045.72;;;-5.52;100.00
12666;BME280;58531;59.050;17.416;2023-03-12T05:24:43;99037.91;;;-5.52;100.00
12666;BME280;58531;59.050;17.416;2023-03-12T05:27:10;99043.84;;;-5.58;100.00
12666;BME280;58531;59.050;17.416;2023-03-12T05:29:37;99046.06;;;-5.60;100.00
12666;BME280;58531;59.050;17.416;2023-03-12T05:32:05;99049.03;;;-5.65;100.00
12666;BME280;58531;59.050;17.416;2023-03-12T05:34:34;99046.38;;;-5.76;100.00
12666;BME280;58531;59.050;17.416;2023-03-12T05:37:01;99058.63;;;-5.79;100.00
12666;BME280;58531;59.050;17.416;2023-03-12T05:39:28;99061.25;;;-5.79;100.00
12666;BME280;58531;59.050;17.416;2023-03-12T05:41:55;99063.78;;;-5.86;100.00
12666;BME280;58531;59.050;17.416;2023-03-12T05:44:22;99057.13;;;-5.84;100.00
12666;BME280;58531;59.050;17.416;2023-03-12T05:46:49;99063.03;;;-5.90;100.00
12666;BME280;58531;59.050;17.416;2023-03-12T05:49:17;99071.97;;;-5.88;100.00
12666;BME280;58531;59.050;17.416;2023-03-12T05:51:45;99065.28;;;-5.82;100.00
12666;BME280;58531;59.050;17.416;2023-03-12T05:54:12;99073.09;;;-5.82;100.00
12666;BME280;58531;59.050;17.416;2023-03-12T05:56:39;99080.16;;;-5.79;100.00
12666;BME280;58531;59.050;17.416;2023-03-12T05:59:06;99083.88;;;-5.73;100.00
12666;BME280;58531;59.050;17.416;2023-03-12T06:01:35;99079.44;;;-5.73;100.00
12666;BME280;58531;59.050;17.416;2023-03-12T06:04:01;99085.75;;;-5.74;100.00
12666;BME280;58531;59.050;17.416;2023-03-12T06:06:29;99088.78;;;-5.65;100.00
12666;BME280;58531;59.050;17.416;2023-03-12T06:08:58;99095.09;;;-5.62;100.00
12666;BME280;58531;59.050;17.416;2023-03-12T06:11:26;99098.50;;;-5.51;100.00
12666;BME280;58531;59.050;17.416;2023-03-12T06:13:53;99108.97;;;-5.34;100.00
12666;BME280;58531;59.050;17.416;2023-03-12T06:16:21;99104.50;;;-5.33;99.57
12666;BME280;58531;59.050;17.416;2023-03-12T06:18:52;99117.22;;;-5.18;99.13
12666;BME280;58531;59.050;17.416;2023-03-12T06:21:23;99113.94;;;-4.94;97.37
12666;BME280;58531;59.050;17.416;2023-03-12T06:23:50;99116.19;;;-4.92;96.73
12666;BME280;58531;59.050;17.416;2023-03-12T06:26:20;99116.19;;;-4.82;95.88
12666;BME280;58531;59.050;17.416;2023-03-12T06:28:48;99117.00;;;-4.54;94.70
12666;BME280;58531;59.050;17.416;2023-03-12T06:31:16;99121.47;;;-4.44;93.37
12666;BME280;58531;59.050;17.416;2023-03-12T06:33:44;99128.16;;;-4.32;92.38
12666;BME280;58531;59.050;17.416;2023-03-12T06:36:11;99131.53;;;-4.39;92.22
12666;BME280;58531;59.050;17.416;2023-03-12T06:38:38;99138.56;;;-4.39;91.85
12666;BME280;58531;59.050;17.416;2023-03-12T06:41:07;99135.63;;;-4.27;90.81
12666;BME280;58531;59.050;17.416;2023-03-12T06:43:37;99140.09;;;-4.24;90.60
12666;BME280;58531;59.050;17.416;2023-03-12T06:46:05;99149.75;;;-3.83;88.96
12666;BME280;58531;59.050;17.416;2023-03-12T06:48:33;99155.66;;;-3.58;86.84
12666;BME280;58531;59.050;17.416;2023-03-12T06:51:02;99155.69;;;-3.65;85.92
12666;BME280;58531;59.050;17.416;2023-03-12T06:53:29;99171.00;;;-3.88;86.83
12666;BME280;58531;59.050;17.416;2023-03-12T06:55:56;99172.84;;;-3.99;88.14
12666;BME280;58531;59.050;17.416;2023-03-12T06:58:24;99175.44;;;-4.20;89.54
12666;BME280;58531;59.050;17.416;2023-03-12T07:00:52;99178.78;;;-4.23;89.28
12666;BME280;58531;59.050;17.416;2023-03-12T07:03:19;99184.38;;;-4.21;89.15
12666;BME280;58531;59.050;17.416;2023-03-12T07:05:47;99189.25;;;-4.12;88.59
12666;BME280;58531;59.050;17.416;2023-03-12T07:08:15;99190.72;;;-4.15;88.58
12666;BME280;58531;59.050;17.416;2023-03-12T07:10:43;99193.31;;;-4.04;88.33
12666;BME280;58531;59.050;17.416;2023-03-12T07:13:10;99202.63;;;-4.14;88.28
12666;BME280;58531;59.050;17.416;2023-03-12T07:15:37;99198.56;;;-4.11;88.10
12666;BME280;58531;59.050;17.416;2023-03-12T07:18:07;99202.66;;;-4.00;87.90
12666;BME280;58531;59.050;17.416;2023-03-12T07:20:36;99207.13;;;-3.83;86.68
12666;BME280;58531;59.050;17.416;2023-03-12T07:23:04;99215.31;;;-3.95;86.73
12666;BME280;58531;59.050;17.416;2023-03-12T07:25:34;99219.78;;;-3.67;86.36
12666;BME280;58531;59.050;17.416;2023-03-12T07:28:01;99218.22;;;-3.30;84.35
12666;BME280;58531;59.050;17.416;2023-03-12T07:30:28;99209.59;;;-2.99;82.43
12666;BME280;58531;59.050;17.416;2023-03-12T07:32:58;99219.69;;;-3.12;82.37
12666;BME280;58531;59.050;17.416;2023-03-12T07:35:28;99227.53;;;-3.19;82.18
12666;BME280;58531;59.050;17.416;2023-03-12T07:37:55;99233.50;;;-3.08;82.45
12666;BME280;58531;59.050;17.416;2023-03-12T07:40:25;99231.66;;;-3.18;82.65
12666;BME280;58531;59.050;17.416;2023-03-12T07:42:52;99234.97;;;-3.17;83.60
12666;BME280;58531;59.050;17.416;2023-03-12T07:45:19;99229.38;;;-3.12;82.71
12666;BME280;58531;59.050;17.416;2023-03-12T07:47:47;99231.94;;;-2.95;81.21
12666;BME280;58531;59.050;17.416;2023-03-12T07:50:14;99238.22;;;-2.78;81.43
12666;BME280;58531;59.050;17.416;2023-03-12T07:52:43;99246.09;;;-2.82;80.93
12666;BME280;58531;59.050;17.416;2023-03-12T07:55:11;99246.78;;;-2.74;80.17
12666;BME280;58531;59.050;17.416;2023-03-12T07:57:38;99251.63;;;-2.69;80.63
12666;BME280;58531;59.050;17.416;2023-03-12T08:00:06;99250.09;;;-2.56;79.50
12666;BME280;58531;59.050;17.416;2023-03-12T08:02:34;99248.03;;;-2.25;78.34
12666;BME280;58531;59.050;17.416;2023-03-12T08:05:01;99255.41;;;-2.06;77.11
12666;BME280;58531;59.050;17.416;2023-03-12T08:07:29;99266.75;;;-1.72;75.79
12666;BME280;58531;59.050;17.416;2023-03-12T08:10:01;99262.91;;;-2.08;76.32
12666;BME280;58531;59.050;17.416;2023-03-12T08:12:30;99270.28;;;-2.74;77.82
12666;BME280;58531;59.050;17.416;2023-03-12T08:14:57;99269.66;;;-3.20;80.51
12666;BME280;58531;59.050;17.416;2023-03-12T08:17:24;99272.28;;;-3.27;81.62
12666;BME280;58531;59.050;17.416;2023-03-12T08:19:51;99275.66;;;-3.20;81.15
12666;BME280;58531;59.050;17.416;2023-03-12T08:22:18;99280.09;;;-3.20;81.08
12666;BME280;58531;59.050;17.416;2023-03-12T08:24:45;99281.22;;;-3.21;81.45
12666;BME280;58531;59.050;17.416;2023-03-12T08:27:13;99280.09;;;-2.99;81.32
12666;BME280;58531;59.050;17.416;2023-03-12T08:29:40;99281.97;;;-3.10;80.10
12666;BME280;58531;59.050;17.416;2023-03-12T08:32:08;99283.81;;;-3.00;80.16
12666;BME280;58531;59.050;17.416;2023-03-12T08:34:36;99298.28;;;-2.78;79.60
12666;BME280;58531;59.050;17.416;2023-03-12T08:37:03;99302.03;;;-2.79;78.63
12666;BME280;58531;59.050;17.416;2023-03-12T08:39:32;99296.47;;;-2.88;79.65
12666;BME280;58531;59.050;17.416;2023-03-12T08:41:59;99305.00;;;-2.70;79.11
12666;BME280;58531;59.050;17.416;2023-03-12T08:44:27;99306.13;;;-2.68;78.24
12666;BME280;58531;59.050;17.416;2023-03-12T08:46:54;99312.09;;;-2.74;78.43
12666;BME280;58531;59.050;17.416;2023-03-12T08:49:21;99306.50;;;-2.76;78.58
12666;BME280;58531;59.050;17.416;2023-03-12T08:51:49;99316.88;;;-2.48;79.01
12666;BME280;58531;59.050;17.416;2023-03-12T08:54:17;99316.44;;;-2.30;76.62
12666;BME280;58531;59.050;17.416;2023-03-12T08:56:44;99318.63;;;-2.21;76.78
12666;BME280;58531;59.050;17.416;2023-03-12T08:59:12;99310.44;;;-2.27;75.73
12666;BME280;58531;59.050;17.416;2023-03-12T09:01:40;99311.13;;;-2.12;75.37
12666;BME280;58531;59.050;17.416;2023-03-12T09:04:07;99310.00;;;-2.15;75.02
12666;BME280;58531;59.050;17.416;2023-03-12T09:06:34;99322.25;;;-2.01;75.36
12666;BME280;58531;59.050;17.416;2023-03-12T09:09:01;99322.94;;;-1.87;73.76
12666;BME280;58531;59.050;17.416;2023-03-12T09:11:30;99326.13;;;-1.58;73.82
12666;BME280;58531;59.050;17.416;2023-03-12T09:13:57;99335.03;;;-1.49;72.27
12666;BME280;58531;59.050;17.416;2023-03-12T09:16:24;99335.19;;;-1.77;72.38
12666;BME280;58531;59.050;17.416;2023-03-12T09:18:52;99330.03;;;-1.84;71.27
12666;BME280;58531;59.050;17.416;2023-03-12T09:21:20;99334.03;;;-1.69;71.74
12666;BME280;58531;59.050;17.416;2023-03-12T09:23:47;99326.44;;;-1.53;70.28
12666;BME280;58531;59.050;17.416;2023-03-12T09:26:14;99335.03;;;-1.49;69.96
12666;BME280;58531;59.050;17.416;2023-03-12T09:28:41;99342.91;;;-1.56;68.88
12666;BME280;58531;59.050;17.416;2023-03-12T09:31:09;99334.78;;;-1.72;69.11
12666;BME280;58531;59.050;17.416;2023-03-12T09:33:36;99348.97;;;-1.66;68.67
12666;BME280;58531;59.050;17.416;2023-03-12T09:36:05;99340.72;;;-1.61;67.58
12666;BME280;58531;59.050;17.416;2023-03-12T09:38:32;99348.97;;;-1.62;68.56
12666;BME280;58531;59.050;17.416;2023-03-12T09:41:00;99350.78;;;-1.56;67.19
12666;BME280;58531;59.050;17.416;2023-03-12T09:43:33;99350.78;;;-1.56;66.82
12666;BME280;58531;59.050;17.416;2023-03-12T09:46:03;99346.72;;;-1.64;66.43
12666;BME280;58531;59.050;17.416;2023-03-12T09:48:36;99349.38;;;-1.71;65.83
12666;BME280;58531;59.050;17.416;2023-03-12T09:51:12;99350.84;;;-1.66;65.39
12666;BME280;58531;59.050;17.416;2023-03-12T09:53:43;99355.69;;;-1.65;65.89
12666;BME280;58531;59.050;17.416;2023-03-12T09:56:14;99367.16;;;-1.48;65.50
12666;BME280;58531;59.050;17.416;2023-03-12T09:58:43;99362.66;;;-1.41;64.54
12666;BME280;58531;59.050;17.416;2023-03-12T10:01:26;99369.50;;;-1.57;65.24
12666;BME280;58531;59.050;17.416;2023-03-12T10:04:05;99367.59;;;-1.57;64.32
12666;BME280;58531;59.050;17.416;2023-03-12T10:06:37;99369.69;;;-1.34;64.34
12666;BME280;58531;59.050;17.416;2023-03-12T10:09:19;99360.25;;;-1.25;63.74
12666;BME280;58531;59.050;17.416;2023-03-12T10:11:54;99373.91;;;-1.00;65.30
12666;BME280;58531;59.050;17.416;2023-03-12T10:14:35;99371.50;;;-0.81;64.03
12666;BME280;58531;59.050;17.416;2023-03-12T10:17:34;99368.47;;;-0.76;62.37
12666;BME280;58531;59.050;17.416;2023-03-12T10:23:07;99384.13;;;-0.69;62.98
12666;BME280;58531;59.050;17.416;2023-03-12T10:25:40;99380.13;;;-0.80;61.92
12666;BME280;58531;59.050;17.416;2023-03-12T10:28:14;99386.31;;;-1.04;61.58
12666;BME280;58531;59.050;17.416;2023-03-12T10:30:47;99398.56;;;-0.94;63.36
12666;BME280;58531;59.050;17.416;2023-03-12T10:33:19;99389.38;;;-0.72;61.39
12666;BME280;58531;59.050;17.416;2023-03-12T10:35:49;99404.06;;;-0.78;61.85
12666;BME280;58531;59.050;17.416;2023-03-12T10:38:24;99394.00;;;-0.87;60.55
12666;BME280;58531;59.050;17.416;2023-03-12T10:40:53;99398.81;;;-0.78;62.65
12666;BME280;58531;59.050;17.416;2023-03-12T10:43:20;99390.44;;;-0.66;61.99
12666;BME280;58531;59.050;17.416;2023-03-12T10:45:53;99391.59;;;-0.67;60.99
12666;BME280;58531;59.050;17.416;2023-03-12T10:48:24;99394.44;;;-0.51;60.29
12666;BME280;58531;59.050;17.416;2023-03-12T10:51:01;99386.97;;;-0.53;59.91
12666;BME280;58531;59.050;17.416;2023-03-12T10:53:31;99390.50;;;-0.33;59.21
12666;BME280;58531;59.050;17.416;2023-03-12T10:56:04;99387.75;;;-0.22;58.62
12666;BME280;58531;59.050;17.416;2023-03-12T10:58:35;99395.78;;;-0.36;56.98
12666;BME280;58531;59.050;17.416;2023-03-12T11:01:04;99392.03;;;-0.35;58.52
12666;BME280;58531;59.050;17.416;2023-03-12T11:03:32;99393.50;;;-0.34;57.39
12666;BME280;58531;59.050;17.416;2023-03-12T11:06:00;99393.78;;;-0.25;56.79
12666;BME280;58531;59.050;17.416;2023-03-12T11:08:31;99407.50;;;-0.14;54.18
12666;BME280;58531;59.050;17.416;2023-03-12T11:11:00;99406.81;;;-0.18;54.96
12666;BME280;58531;59.050;17.416;2023-03-12T11:13:30;99407.50;;;-0.11;53.63
12666;BME280;58531;59.050;17.416;2023-03-12T11:15:59;99421.00;;;-0.12;52.81
12666;BME280;58531;59.050;17.416;2023-03-12T11:18:29;99416.59;;;-0.22;52.13
12666;BME280;58531;59.050;17.416;2023-03-12T11:21:11;99408.63;;;-0.12;51.75
12666;BME280;58531;59.050;17.416;2023-03-12T11:23:42;99428.50;;;-0.14;52.44
12666;BME280;58531;59.050;17.416;2023-03-12T11:26:14;99409.19;;;-0.27;50.99
12666;BME280;58531;59.050;17.416;2023-03-12T11:28:44;99417.00;;;-0.24;52.48
12666;BME280;58531;59.050;17.416;2023-03-12T11:31:19;99420.44;;;-0.30;52.28
12666;BME280;58531;59.050;17.416;2023-03-12T11:33:50;99437.03;;;-0.40;50.30
12666;BME280;58531;59.050;17.416;2023-03-12T11:36:30;99432.69;;;-0.20;51.58
12666;BME280;58531;59.050;17.416;2023-03-12T11:39:08;99428.78;;;-0.05;51.74
12666;BME280;58531;59.050;17.416;2023-03-12T11:41:51;99432.47;;;0.00;49.21
12666;BME280;58531;59.050;17.416;2023-03-12T11:44:26;99435.22;;;-0.10;51.22
12666;BME280;58531;59.050;17.416;2023-03-12T11:47:08;99437.38;;;-0.02;51.74
12666;BME280;58531;59.050;17.416;2023-03-12T11:49:50;99433.25;;;-0.03;48.91
12666;BME280;58531;59.050;17.416;2023-03-12T11:52:26;99429.06;;;0.03;52.75
12666;BME280;58531;59.050;17.416;2023-03-12T11:55:31;99429.75;;;0.07;52.30
12666;BME280;58531;59.050;17.416;2023-03-12T11:58:18;99421.50;;;0.09;52.29
12666;BME280;58531;59.050;17.416;2023-03-12T12:00:52;99431.09;;;0.22;53.15
12666;BME280;58531;59.050;17.416;2023-03-12T12:03:46;99436.00;;;0.20;50.79
12666;BME280;58531;59.050;17.416;2023-03-12T12:06:24;99444.66;;;0.17;49.40
12666;BME280;58531;59.050;17.416;2023-03-12T12:09:14;99443.31;;;0.02;50.96
12666;BME280;58531;59.050;17.416;2023-03-12T12:11:54;99433.88;;;0.08;49.28
12666;BME280;58531;59.050;17.416;2023-03-12T12:14:37;99438.22;;;0.22;50.61
12666;BME280;58531;59.050;17.416;2023-03-12T12:17:17;99442.41;;;0.46;49.11
12666;BME280;58531;59.050;17.416;2023-03-12T12:20:00;99440.38;;;0.57;49.97
12666;BME280;58531;59.050;17.416;2023-03-12T12:22:41;99454.66;;;0.56;49.96
12666;BME280;58531;59.050;17.416;2023-03-12T12:25:24;99454.69;;;0.52;48.39
12666;BME280;58531;59.050;17.416;2023-03-12T12:28:07;99447.69;;;0.42;49.94
12666;BME280;58531;59.050;17.416;2023-03-12T12:30:53;99458.25;;;0.39;48.80
12666;BME280;58531;59.050;17.416;2023-03-12T12:33:31;99457.69;;;0.54;48.42
12666;BME280;58531;59.050;17.416;2023-03-12T12:36:03;99460.66;;;0.56;49.80
12666;BME280;58531;59.050;17.416;2023-03-12T12:38:34;99462.53;;;0.82;50.55
12666;BME280;58531;59.050;17.416;2023-03-12T12:41:07;99463.91;;;0.67;47.26
12666;BME280;58531;59.050;17.416;2023-03-12T12:43:38;99467.56;;;0.73;49.50
12666;BME280;58531;59.050;17.416;2023-03-12T12:46:09;99470.78;;;0.84;49.20
12666;BME280;58531;59.050;17.416;2023-03-12T12:48:39;99464.81;;;0.80;48.65
12666;BME280;58531;59.050;17.416;2023-03-12T12:51:10;99462.16;;;0.57;48.66
12666;BME280;58531;59.050;17.416;2023-03-12T12:53:44;99459.88;;;0.59;47.27
12666;BME280;58531;59.050;17.416;2023-03-12T12:56:21;99461.50;;;0.50;47.70
12666;BME280;58531;59.050;17.416;2023-03-12T12:59:03;99473.19;;;0.72;49.08
12666;BME280;58531;59.050;17.416;2023-03-12T13:01:33;99472.66;;;0.84;46.56